sensor_id;sensor_type;location;lat;lon;timestamp;P1;durP1;ratioP1;P2;durP2;ratioP2
6475;SDS011;3271;51.910;5.840;2024-01-16T00:01:56;0.30;;;0.30;;
6475;SDS011;3271;51.910;5.840;2024-01-16T00:04:22;0.40;;;0.40;;
6475;SDS011;3271;51.910;5.840;2024-01-16T00:06:48;0.40;;;0.40;;
6475;SDS011;3271;51.910;5.840;2024-01-16T00:09:15;0.40;;;0.40;;
6475;SDS011;3271;51.910;5.840;2024-01-16T00:11:44;0.40;;;0.40;;
6475;SDS011;3271;51.910;5.840;2024-01-16T00:14:10;0.30;;;0.30;;
6475;SDS011;3271;51.910;5.840;2024-01-16T00:16:42;0.35;;;0.35;;
6475;SDS011;3271;51.910;5.840;2024-01-16T00:19:09;0.40;;;0.40;;
6475;SDS011;3271;51.910;5.840;2024-01-16T00:21:40;0.60;;;0.60;;
6475;SDS011;3271;51.910;5.840;2024-01-16T00:24:06;0.30;;;0.30;;
6475;SDS011;3271;51.910;5.840;2024-01-16T00:26:32;0.50;;;0.50;;
6475;SDS011;3271;51.910;5.840;2024-01-16T00:28:58;0.50;;;0.50;;
6475;SDS011;3271;51.910;5.840;2024-01-16T00:31:24;0.45;;;0.45;;
6475;SDS011;3271;51.910;5.840;2024-01-16T00:33:50;0.50;;;0.50;;
6475;SDS011;3271;51.910;5.840;2024-01-16T00:36:16;0.40;;;0.40;;
6475;SDS011;3271;51.910;5.840;2024-01-16T00:38:42;0.50;;;0.50;;
6475;SDS011;3271;51.910;5.840;2024-01-16T00:41:08;0.50;;;0.50;;
6475;SDS011;3271;51.910;5.840;2024-01-16T00:43:34;0.50;;;0.50;;
6475;SDS011;3271;51.910;5.840;2024-01-16T00:46:00;0.40;;;0.40;;
6475;SDS011;3271;51.910;5.840;2024-01-16T00:48:27;0.40;;;0.40;;
6475;SDS011;3271;51.910;5.840;2024-01-16T00:50:52;0.40;;;0.40;;
6475;SDS011;3271;51.910;5.840;2024-01-16T00:53:18;0.40;;;0.40;;
6475;SDS011;3271;51.910;5.840;2024-01-16T00:55:44;0.40;;;0.40;;
6475;SDS011;3271;51.910;5.840;2024-01-16T00:58:11;0.40;;;0.40;;
6475;SDS011;3271;51.910;5.840;2024-01-16T01:00:37;0.40;;;0.40;;
6475;SDS011;3271;51.910;5.840;2024-01-16T01:03:03;0.50;;;0.50;;
6475;SDS011;3271;51.910;5.840;2024-01-16T01:05:30;0.40;;;0.40;;
6475;SDS011;3271;51.910;5.840;2024-01-16T01:07:56;0.50;;;0.50;;
6475;SDS011;3271;51.910;5.840;2024-01-16T01:10:22;0.40;;;0.40;;
6475;SDS011;3271;51.910;5.840;2024-01-16T01:12:48;0.40;;;0.40;;
6475;SDS011;3271;51.910;5.840;2024-01-16T01:15:14;0.40;;;0.40;;
6475;SDS011;3271;51.910;5.840;2024-01-16T01:17:40;0.50;;;0.50;;
6475;SDS011;3271;51.910;5.840;2024-01-16T01:20:07;0.40;;;0.40;;
6475;SDS011;3271;51.910;5.840;2024-01-16T01:22:34;0.40;;;0.40;;
6475;SDS011;3271;51.910;5.840;2024-01-16T01:25:00;0.40;;;0.40;;
6475;SDS011;3271;51.910;5.840;2024-01-16T01:27:26;0.47;;;0.47;;
6475;SDS011;3271;51.910;5.840;2024-01-16T01:29:52;0.60;;;0.60;;
6475;SDS011;3271;51.910;5.840;2024-01-16T01:32:18;0.40;;;0.40;;
6475;SDS011;3271;51.910;5.840;2024-01-16T01:34:44;0.40;;;0.40;;
6475;SDS011;3271;51.910;5.840;2024-01-16T01:37:10;0.40;;;0.40;;
6475;SDS011;3271;51.910;5.840;2024-01-16T01:39:36;0.33;;;0.33;;
6475;SDS011;3271;51.910;5.840;2024-01-16T01:42:02;0.40;;;0.40;;
6475;SDS011;3271;51.910;5.840;2024-01-16T01:44:28;0.50;;;0.50;;
6475;SDS011;3271;51.910;5.840;2024-01-16T01:46:54;0.50;;;0.50;;
6475;SDS011;3271;51.910;5.840;2024-01-16T01:49:20;0.50;;;0.50;;
6475;SDS011;3271;51.910;5.840;2024-01-16T01:51:47;0.50;;;0.50;;
6475;SDS011;3271;51.910;5.840;2024-01-16T01:54:14;0.43;;;0.43;;
6475;SDS011;3271;51.910;5.840;2024-01-16T01:56:42;0.40;;;0.40;;
6475;SDS011;3271;51.910;5.840;2024-01-16T01:59:09;0.50;;;0.50;;
6475;SDS011;3271;51.910;5.840;2024-01-16T02:01:35;0.70;;;0.70;;
6475;SDS011;3271;51.910;5.840;2024-01-16T02:04:01;0.40;;;0.40;;
6475;SDS011;3271;51.910;5.840;2024-01-16T02:06:28;0.50;;;0.50;;
6475;SDS011;3271;51.910;5.840;2024-01-16T02:08:54;0.40;;;0.40;;
6475;SDS011;3271;51.910;5.840;2024-01-16T02:11:20;0.40;;;0.40;;
6475;SDS011;3271;51.910;5.840;2024-01-16T02:13:46;0.40;;;0.40;;
6475;SDS011;3271;51.910;5.840;2024-01-16T02:16:21;0.40;;;0.40;;
6475;SDS011;3271;51.910;5.840;2024-01-16T02:18:48;0.50;;;0.50;;
6475;SDS011;3271;51.910;5.840;2024-01-16T02:21:18;0.43;;;0.43;;
6475;SDS011;3271;51.910;5.840;2024-01-16T02:23:46;0.40;;;0.40;;
6475;SDS011;3271;51.910;5.840;2024-01-16T02:26:15;0.40;;;0.40;;
6475;SDS011;3271;51.910;5.840;2024-01-16T02:28:41;0.40;;;0.40;;
6475;SDS011;3271;51.910;5.840;2024-01-16T02:31:08;0.40;;;0.40;;
6475;SDS011;3271;51.910;5.840;2024-01-16T02:33:34;0.50;;;0.50;;
6475;SDS011;3271;51.910;5.840;2024-01-16T02:36:00;0.47;;;0.47;;
6475;SDS011;3271;51.910;5.840;2024-01-16T02:38:25;0.40;;;0.40;;
6475;SDS011;3271;51.910;5.840;2024-01-16T02:40:51;0.50;;;0.50;;
6475;SDS011;3271;51.910;5.840;2024-01-16T02:43:17;0.50;;;0.50;;
6475;SDS011;3271;51.910;5.840;2024-01-16T02:45:44;2.00;;;1.60;;
6475;SDS011;3271;51.910;5.840;2024-01-16T02:48:10;0.40;;;0.40;;
6475;SDS011;3271;51.910;5.840;2024-01-16T02:50:36;0.50;;;0.50;;
6475;SDS011;3271;51.910;5.840;2024-01-16T02:53:03;0.50;;;0.50;;
6475;SDS011;3271;51.910;5.840;2024-01-16T02:55:29;0.50;;;0.50;;
6475;SDS011;3271;51.910;5.840;2024-01-16T02:57:55;0.40;;;0.40;;
6475;SDS011;3271;51.910;5.840;2024-01-16T03:00:21;0.30;;;0.30;;
6475;SDS011;3271;51.910;5.840;2024-01-16T03:02:47;0.40;;;0.40;;
6475;SDS011;3271;51.910;5.840;2024-01-16T03:05:14;0.50;;;0.50;;
6475;SDS011;3271;51.910;5.840;2024-01-16T03:07:40;0.40;;;0.40;;
6475;SDS011;3271;51.910;5.840;2024-01-16T03:10:06;0.40;;;0.40;;
6475;SDS011;3271;51.910;5.840;2024-01-16T03:12:33;0.40;;;0.40;;
6475;SDS011;3271;51.910;5.840;2024-01-16T03:14:59;0.40;;;0.40;;
6475;SDS011;3271;51.910;5.840;2024-01-16T03:17:24;0.50;;;0.50;;
6475;SDS011;3271;51.910;5.840;2024-01-16T03:19:50;0.43;;;0.43;;
6475;SDS011;3271;51.910;5.840;2024-01-16T03:22:16;0.30;;;0.30;;
6475;SDS011;3271;51.910;5.840;2024-01-16T03:24:43;0.50;;;0.50;;
6475;SDS011;3271;51.910;5.840;2024-01-16T03:27:09;0.37;;;0.37;;
6475;SDS011;3271;51.910;5.840;2024-01-16T03:29:35;0.40;;;0.40;;
6475;SDS011;3271;51.910;5.840;2024-01-16T03:32:01;0.50;;;0.50;;
6475;SDS011;3271;51.910;5.840;2024-01-16T03:34:29;0.50;;;0.50;;
6475;SDS011;3271;51.910;5.840;2024-01-16T03:36:56;0.50;;;0.50;;
6475;SDS011;3271;51.910;5.840;2024-01-16T03:39:22;0.47;;;0.47;;
6475;SDS011;3271;51.910;5.840;2024-01-16T03:41:48;0.40;;;0.40;;
6475;SDS011;3271;51.910;5.840;2024-01-16T03:44:14;0.40;;;0.40;;
6475;SDS011;3271;51.910;5.840;2024-01-16T03:46:40;0.40;;;0.40;;
6475;SDS011;3271;51.910;5.840;2024-01-16T03:49:06;0.40;;;0.40;;
6475;SDS011;3271;51.910;5.840;2024-01-16T03:51:32;0.50;;;0.50;;
6475;SDS011;3271;51.910;5.840;2024-01-16T03:53:58;0.40;;;0.40;;
6475;SDS011;3271;51.910;5.840;2024-01-16T03:56:24;0.50;;;0.50;;
6475;SDS011;3271;51.910;5.840;2024-01-16T03:58:50;0.50;;;0.50;;
6475;SDS011;3271;51.910;5.840;2024-01-16T04:01:16;0.50;;;0.50;;
6475;SDS011;3271;51.910;5.840;2024-01-16T04:03:42;0.40;;;0.40;;
6475;SDS011;3271;51.910;5.840;2024-01-16T04:06:17;0.40;;;0.40;;
6475;SDS011;3271;51.910;5.840;2024-01-16T04:08:43;0.40;;;0.40;;
6475;SDS011;3271;51.910;5.840;2024-01-16T04:11:12;0.50;;;0.50;;
6475;SDS011;3271;51.910;5.840;2024-01-16T04:13:39;0.30;;;0.30;;
6475;SDS011;3271;51.910;5.840;2024-01-16T04:16:05;0.43;;;0.43;;
6475;SDS011;3271;51.910;5.840;2024-01-16T04:18:38;0.40;;;0.40;;
6475;SDS011;3271;51.910;5.840;2024-01-16T04:21:05;0.40;;;0.40;;
6475;SDS011;3271;51.910;5.840;2024-01-16T04:23:31;0.50;;;0.50;;
6475;SDS011;3271;51.910;5.840;2024-01-16T04:25:57;0.40;;;0.40;;
6475;SDS011;3271;51.910;5.840;2024-01-16T04:28:23;0.40;;;0.40;;
6475;SDS011;3271;51.910;5.840;2024-01-16T04:30:50;0.50;;;0.50;;
6475;SDS011;3271;51.910;5.840;2024-01-16T04:33:16;0.47;;;0.47;;
6475;SDS011;3271;51.910;5.840;2024-01-16T04:35:42;0.40;;;0.40;;
6475;SDS011;3271;51.910;5.840;2024-01-16T04:38:08;0.43;;;0.43;;
6475;SDS011;3271;51.910;5.840;2024-01-16T04:40:34;0.40;;;0.40;;
6475;SDS011;3271;51.910;5.840;2024-01-16T04:43:00;0.50;;;0.50;;
6475;SDS011;3271;51.910;5.840;2024-01-16T04:45:26;0.40;;;0.40;;
6475;SDS011;3271;51.910;5.840;2024-01-16T04:47:52;0.43;;;0.43;;
6475;SDS011;3271;51.910;5.840;2024-01-16T04:50:18;0.40;;;0.40;;
6475;SDS011;3271;51.910;5.840;2024-01-16T04:52:44;0.50;;;0.50;;
6475;SDS011;3271;51.910;5.840;2024-01-16T04:55:10;0.40;;;0.40;;
6475;SDS011;3271;51.910;5.840;2024-01-16T04:57:36;0.47;;;0.47;;
6475;SDS011;3271;51.910;5.840;2024-01-16T05:00:02;0.47;;;0.47;;
6475;SDS011;3271;51.910;5.840;2024-01-16T05:02:32;0.57;;;0.57;;
6475;SDS011;3271;51.910;5.840;2024-01-16T05:04:59;0.50;;;0.50;;
6475;SDS011;3271;51.910;5.840;2024-01-16T05:07:25;0.50;;;0.50;;
6475;SDS011;3271;51.910;5.840;2024-01-16T05:09:51;0.50;;;0.50;;
6475;SDS011;3271;51.910;5.840;2024-01-16T05:12:17;0.40;;;0.40;;
6475;SDS011;3271;51.910;5.840;2024-01-16T05:14:43;0.50;;;0.50;;
6475;SDS011;3271;51.910;5.840;2024-01-16T05:17:09;0.60;;;0.60;;
6475;SDS011;3271;51.910;5.840;2024-01-16T05:19:35;0.40;;;0.40;;
6475;SDS011;3271;51.910;5.840;2024-01-16T05:22:01;0.40;;;0.40;;
6475;SDS011;3271;51.910;5.840;2024-01-16T05:24:28;0.43;;;0.43;;
6475;SDS011;3271;51.910;5.840;2024-01-16T05:26:54;0.40;;;0.40;;
6475;SDS011;3271;51.910;5.840;2024-01-16T05:29:19;0.50;;;0.50;;
6475;SDS011;3271;51.910;5.840;2024-01-16T05:31:45;0.43;;;0.43;;
6475;SDS011;3271;51.910;5.840;2024-01-16T05:34:11;0.50;;;0.50;;
6475;SDS011;3271;51.910;5.840;2024-01-16T05:36:37;0.50;;;0.50;;
6475;SDS011;3271;51.910;5.840;2024-01-16T05:39:04;0.50;;;0.50;;
6475;SDS011;3271;51.910;5.840;2024-01-16T05:41:33;0.47;;;0.47;;
6475;SDS011;3271;51.910;5.840;2024-01-16T05:43:59;0.40;;;0.40;;
6475;SDS011;3271;51.910;5.840;2024-01-16T05:46:28;0.50;;;0.50;;
6475;SDS011;3271;51.910;5.840;2024-01-16T05:48:54;0.50;;;0.50;;
6475;SDS011;3271;51.910;5.840;2024-01-16T05:51:20;0.40;;;0.40;;
6475;SDS011;3271;51.910;5.840;2024-01-16T05:53:46;0.50;;;0.50;;
6475;SDS011;3271;51.910;5.840;2024-01-16T05:56:13;0.40;;;0.40;;
6475;SDS011;3271;51.910;5.840;2024-01-16T05:58:39;0.40;;;0.40;;
6475;SDS011;3271;51.910;5.840;2024-01-16T06:01:05;0.50;;;0.50;;
6475;SDS011;3271;51.910;5.840;2024-01-16T06:03:31;0.40;;;0.40;;
6475;SDS011;3271;51.910;5.840;2024-01-16T06:05:58;0.40;;;0.40;;
6475;SDS011;3271;51.910;5.840;2024-01-16T06:08:24;0.40;;;0.40;;
6475;SDS011;3271;51.910;5.840;2024-01-16T06:10:50;0.30;;;0.30;;
6475;SDS011;3271;51.910;5.840;2024-01-16T06:13:17;0.47;;;0.47;;
6475;SDS011;3271;51.910;5.840;2024-01-16T06:15:43;0.50;;;0.50;;
6475;SDS011;3271;51.910;5.840;2024-01-16T06:18:09;0.50;;;0.50;;
6475;SDS011;3271;51.910;5.840;2024-01-16T06:20:35;0.40;;;0.40;;
6475;SDS011;3271;51.910;5.840;2024-01-16T06:23:01;0.60;;;0.60;;
6475;SDS011;3271;51.910;5.840;2024-01-16T06:25:27;0.50;;;0.50;;
6475;SDS011;3271;51.910;5.840;2024-01-16T06:27:53;0.50;;;0.50;;
6475;SDS011;3271;51.910;5.840;2024-01-16T06:30:20;0.40;;;0.40;;
6475;SDS011;3271;51.910;5.840;2024-01-16T06:32:46;0.50;;;0.50;;
6475;SDS011;3271;51.910;5.840;2024-01-16T06:35:12;0.40;;;0.40;;
6475;SDS011;3271;51.910;5.840;2024-01-16T06:37:38;0.40;;;0.40;;
6475;SDS011;3271;51.910;5.840;2024-01-16T06:40:05;0.50;;;0.50;;
6475;SDS011;3271;51.910;5.840;2024-01-16T06:42:31;0.50;;;0.50;;
6475;SDS011;3271;51.910;5.840;2024-01-16T06:44:58;0.50;;;0.50;;
6475;SDS011;3271;51.910;5.840;2024-01-16T06:47:24;0.40;;;0.40;;
6475;SDS011;3271;51.910;5.840;2024-01-16T06:49:50;0.40;;;0.40;;
6475;SDS011;3271;51.910;5.840;2024-01-16T06:52:16;0.35;;;0.35;;
6475;SDS011;3271;51.910;5.840;2024-01-16T06:54:42;0.40;;;0.40;;
6475;SDS011;3271;51.910;5.840;2024-01-16T06:57:08;0.50;;;0.50;;
6475;SDS011;3271;51.910;5.840;2024-01-16T06:59:34;0.40;;;0.40;;
6475;SDS011;3271;51.910;5.840;2024-01-16T07:02:00;0.40;;;0.40;;
6475;SDS011;3271;51.910;5.840;2024-01-16T07:04:26;0.40;;;0.40;;
6475;SDS011;3271;51.910;5.840;2024-01-16T07:06:52;0.40;;;0.40;;
6475;SDS011;3271;51.910;5.840;2024-01-16T07:09:18;0.50;;;0.50;;
6475;SDS011;3271;51.910;5.840;2024-01-16T07:11:45;0.40;;;0.40;;
6475;SDS011;3271;51.910;5.840;2024-01-16T07:14:11;0.40;;;0.40;;
6475;SDS011;3271;51.910;5.840;2024-01-16T07:16:37;0.30;;;0.30;;
6475;SDS011;3271;51.910;5.840;2024-01-16T07:19:04;0.50;;;0.50;;
6475;SDS011;3271;51.910;5.840;2024-01-16T07:21:30;0.40;;;0.40;;
6475;SDS011;3271;51.910;5.840;2024-01-16T07:23:56;0.40;;;0.40;;
6475;SDS011;3271;51.910;5.840;2024-01-16T07:26:22;0.50;;;0.50;;
6475;SDS011;3271;51.910;5.840;2024-01-16T07:28:48;0.50;;;0.50;;
6475;SDS011;3271;51.910;5.840;2024-01-16T07:31:15;0.35;;;0.35;;
6475;SDS011;3271;51.910;5.840;2024-01-16T07:33:44;0.38;;;0.38;;
6475;SDS011;3271;51.910;5.840;2024-01-16T07:36:11;0.40;;;0.40;;
6475;SDS011;3271;51.910;5.840;2024-01-16T07:38:37;0.40;;;0.40;;
6475;SDS011;3271;51.910;5.840;2024-01-16T07:41:03;0.40;;;0.40;;
6475;SDS011;3271;51.910;5.840;2024-01-16T07:43:30;0.40;;;0.40;;
6475;SDS011;3271;51.910;5.840;2024-01-16T07:45:56;0.47;;;0.47;;
6475;SDS011;3271;51.910;5.840;2024-01-16T07:48:22;0.30;;;0.30;;
6475;SDS011;3271;51.910;5.840;2024-01-16T07:50:48;0.50;;;0.50;;
6475;SDS011;3271;51.910;5.840;2024-01-16T07:53:14;0.47;;;0.47;;
6475;SDS011;3271;51.910;5.840;2024-01-16T07:55:40;0.40;;;0.40;;
6475;SDS011;3271;51.910;5.840;2024-01-16T07:58:06;0.40;;;0.40;;
6475;SDS011;3271;51.910;5.840;2024-01-16T08:00:32;0.40;;;0.40;;
6475;SDS011;3271;51.910;5.840;2024-01-16T08:02:58;0.40;;;0.40;;
6475;SDS011;3271;51.910;5.840;2024-01-16T08:05:24;0.40;;;0.40;;
6475;SDS011;3271;51.910;5.840;2024-01-16T08:07:52;0.50;;;0.50;;
6475;SDS011;3271;51.910;5.840;2024-01-16T08:10:18;0.50;;;0.50;;
6475;SDS011;3271;51.910;5.840;2024-01-16T08:12:44;0.40;;;0.40;;
6475;SDS011;3271;51.910;5.840;2024-01-16T08:15:11;0.50;;;0.50;;
6475;SDS011;3271;51.910;5.840;2024-01-16T08:17:37;0.30;;;0.30;;
6475;SDS011;3271;51.910;5.840;2024-01-16T08:20:03;0.40;;;0.40;;
6475;SDS011;3271;51.910;5.840;2024-01-16T08:22:29;0.40;;;0.40;;
6475;SDS011;3271;51.910;5.840;2024-01-16T08:24:55;0.45;;;0.45;;
6475;SDS011;3271;51.910;5.840;2024-01-16T08:27:21;0.50;;;0.50;;
6475;SDS011;3271;51.910;5.840;2024-01-16T08:29:47;0.40;;;0.40;;
6475;SDS011;3271;51.910;5.840;2024-01-16T08:32:15;0.30;;;0.30;;
6475;SDS011;3271;51.910;5.840;2024-01-16T08:34:41;0.45;;;0.45;;
6475;SDS011;3271;51.910;5.840;2024-01-16T08:37:07;0.43;;;0.43;;
6475;SDS011;3271;51.910;5.840;2024-01-16T08:39:34;0.40;;;0.40;;
6475;SDS011;3271;51.910;5.840;2024-01-16T08:42:00;0.40;;;0.40;;
6475;SDS011;3271;51.910;5.840;2024-01-16T08:44:28;0.40;;;0.40;;
6475;SDS011;3271;51.910;5.840;2024-01-16T08:46:54;0.40;;;0.40;;
6475;SDS011;3271;51.910;5.840;2024-01-16T08:49:20;0.50;;;0.50;;
6475;SDS011;3271;51.910;5.840;2024-01-16T08:51:46;0.40;;;0.40;;
6475;SDS011;3271;51.910;5.840;2024-01-16T08:54:12;0.45;;;0.45;;
6475;SDS011;3271;51.910;5.840;2024-01-16T08:56:38;0.63;;;0.63;;
6475;SDS011;3271;51.910;5.840;2024-01-16T08:59:04;0.43;;;0.43;;
6475;SDS011;3271;51.910;5.840;2024-01-16T09:01:30;0.32;;;0.32;;
6475;SDS011;3271;51.910;5.840;2024-01-16T09:03:56;0.70;;;0.70;;
6475;SDS011;3271;51.910;5.840;2024-01-16T09:06:22;0.50;;;0.50;;
6475;SDS011;3271;51.910;5.840;2024-01-16T09:08:48;0.40;;;0.40;;
6475;SDS011;3271;51.910;5.840;2024-01-16T09:11:14;0.30;;;0.30;;
6475;SDS011;3271;51.910;5.840;2024-01-16T09:13:40;0.40;;;0.40;;
6475;SDS011;3271;51.910;5.840;2024-01-16T09:16:06;0.52;;;0.52;;
6475;SDS011;3271;51.910;5.840;2024-01-16T09:18:32;0.40;;;0.40;;
6475;SDS011;3271;51.910;5.840;2024-01-16T09:20:58;0.40;;;0.40;;
6475;SDS011;3271;51.910;5.840;2024-01-16T09:23:24;0.47;;;0.47;;
6475;SDS011;3271;51.910;5.840;2024-01-16T09:25:50;0.40;;;0.40;;
6475;SDS011;3271;51.910;5.840;2024-01-16T09:28:17;0.50;;;0.50;;
6475;SDS011;3271;51.910;5.840;2024-01-16T09:30:43;0.50;;;0.50;;
6475;SDS011;3271;51.910;5.840;2024-01-16T09:33:09;0.40;;;0.40;;
6475;SDS011;3271;51.910;5.840;2024-01-16T09:35:36;0.43;;;0.43;;
6475;SDS011;3271;51.910;5.840;2024-01-16T09:38:04;0.50;;;0.50;;
6475;SDS011;3271;51.910;5.840;2024-01-16T09:40:30;0.50;;;0.50;;
6475;SDS011;3271;51.910;5.840;2024-01-16T09:42:56;0.50;;;0.50;;
6475;SDS011;3271;51.910;5.840;2024-01-16T09:45:22;0.40;;;0.40;;
6475;SDS011;3271;51.910;5.840;2024-01-16T09:47:50;0.50;;;0.50;;
6475;SDS011;3271;51.910;5.840;2024-01-16T09:50:17;0.50;;;0.50;;
6475;SDS011;3271;51.910;5.840;2024-01-16T09:52:45;0.50;;;0.50;;
6475;SDS011;3271;51.910;5.840;2024-01-16T09:55:11;0.43;;;0.43;;
6475;SDS011;3271;51.910;5.840;2024-01-16T09:57:38;0.40;;;0.40;;
6475;SDS011;3271;51.910;5.840;2024-01-16T10:00:06;0.50;;;0.50;;
6475;SDS011;3271;51.910;5.840;2024-01-16T10:02:36;0.50;;;0.50;;
6475;SDS011;3271;51.910;5.840;2024-01-16T10:05:02;0.40;;;0.40;;
6475;SDS011;3271;51.910;5.840;2024-01-16T10:07:28;0.47;;;0.47;;
6475;SDS011;3271;51.910;5.840;2024-01-16T10:09:56;0.50;;;0.50;;
6475;SDS011;3271;51.910;5.840;2024-01-16T10:12:23;0.57;;;0.57;;
6475;SDS011;3271;51.910;5.840;2024-01-16T10:14:49;0.40;;;0.40;;
6475;SDS011;3271;51.910;5.840;2024-01-16T10:17:16;0.50;;;0.50;;
6475;SDS011;3271;51.910;5.840;2024-01-16T10:19:50;0.40;;;0.40;;
6475;SDS011;3271;51.910;5.840;2024-01-16T10:22:25;0.50;;;0.50;;
6475;SDS011;3271;51.910;5.840;2024-01-16T10:25:13;0.40;;;0.40;;
6475;SDS011;3271;51.910;5.840;2024-01-16T10:27:42;0.40;;;0.40;;
6475;SDS011;3271;51.910;5.840;2024-01-16T10:30:08;0.40;;;0.40;;
6475;SDS011;3271;51.910;5.840;2024-01-16T10:32:38;0.40;;;0.40;;
6475;SDS011;3271;51.910;5.840;2024-01-16T10:35:05;0.40;;;0.40;;
6475;SDS011;3271;51.910;5.840;2024-01-16T10:37:54;0.40;;;0.40;;
6475;SDS011;3271;51.910;5.840;2024-01-16T10:40:23;0.50;;;0.50;;
6475;SDS011;3271;51.910;5.840;2024-01-16T10:43:01;0.40;;;0.40;;
6475;SDS011;3271;51.910;5.840;2024-01-16T10:45:32;0.50;;;0.50;;
6475;SDS011;3271;51.910;5.840;2024-01-16T10:50:28;0.40;;;0.40;;
6475;SDS011;3271;51.910;5.840;2024-01-16T10:52:54;0.40;;;0.40;;
6475;SDS011;3271;51.910;5.840;2024-01-16T10:55:24;0.30;;;0.30;;
6475;SDS011;3271;51.910;5.840;2024-01-16T10:57:50;0.50;;;0.50;;
6475;SDS011;3271;51.910;5.840;2024-01-16T11:00:20;0.40;;;0.40;;
6475;SDS011;3271;51.910;5.840;2024-01-16T11:02:51;0.50;;;0.50;;
6475;SDS011;3271;51.910;5.840;2024-01-16T11:05:19;0.50;;;0.50;;
6475;SDS011;3271;51.910;5.840;2024-01-16T11:07:46;1.70;;;1.60;;
6475;SDS011;3271;51.910;5.840;2024-01-16T11:10:12;0.50;;;0.50;;
6475;SDS011;3271;51.910;5.840;2024-01-16T11:12:38;0.40;;;0.40;;
6475;SDS011;3271;51.910;5.840;2024-01-16T11:15:08;0.40;;;0.40;;
6475;SDS011;3271;51.910;5.840;2024-01-16T11:17:37;0.40;;;0.40;;
6475;SDS011;3271;51.910;5.840;2024-01-16T11:20:05;0.50;;;0.50;;
6475;SDS011;3271;51.910;5.840;2024-01-16T11:22:35;0.40;;;0.40;;
6475;SDS011;3271;51.910;5.840;2024-01-16T11:25:16;0.38;;;0.38;;
6475;SDS011;3271;51.910;5.840;2024-01-16T11:27:43;0.40;;;0.40;;
6475;SDS011;3271;51.910;5.840;2024-01-16T11:30:11;0.40;;;0.40;;
6475;SDS011;3271;51.910;5.840;2024-01-16T11:35:05;0.40;;;0.40;;
6475;SDS011;3271;51.910;5.840;2024-01-16T11:37:31;0.30;;;0.30;;
6475;SDS011;3271;51.910;5.840;2024-01-16T11:42:49;0.30;;;0.30;;
6475;SDS011;3271;51.910;5.840;2024-01-16T11:48:08;0.40;;;0.40;;
6475;SDS011;3271;51.910;5.840;2024-01-16T11:50:37;0.47;;;0.47;;
6475;SDS011;3271;51.910;5.840;2024-01-16T11:53:03;0.38;;;0.38;;
6475;SDS011;3271;51.910;5.840;2024-01-16T11:55:30;0.50;;;0.50;;
6475;SDS011;3271;51.910;5.840;2024-01-16T11:58:12;0.40;;;0.40;;
6475;SDS011;3271;51.910;5.840;2024-01-16T12:00:46;0.47;;;0.47;;
6475;SDS011;3271;51.910;5.840;2024-01-16T12:03:16;0.32;;;0.32;;
6475;SDS011;3271;51.910;5.840;2024-01-16T12:05:43;0.38;;;0.38;;
6475;SDS011;3271;51.910;5.840;2024-01-16T12:08:09;0.30;;;0.30;;
6475;SDS011;3271;51.910;5.840;2024-01-16T12:10:45;0.40;;;0.40;;
6475;SDS011;3271;51.910;5.840;2024-01-16T12:13:14;0.40;;;0.40;;
6475;SDS011;3271;51.910;5.840;2024-01-16T12:15:40;0.40;;;0.40;;
6475;SDS011;3271;51.910;5.840;2024-01-16T12:18:06;0.40;;;0.40;;
6475;SDS011;3271;51.910;5.840;2024-01-16T12:20:34;0.40;;;0.40;;
6475;SDS011;3271;51.910;5.840;2024-01-16T12:23:01;0.40;;;0.40;;
6475;SDS011;3271;51.910;5.840;2024-01-16T12:25:27;0.50;;;0.50;;
6475;SDS011;3271;51.910;5.840;2024-01-16T12:27:57;0.60;;;0.60;;
6475;SDS011;3271;51.910;5.840;2024-01-16T12:30:24;0.45;;;0.45;;
6475;SDS011;3271;51.910;5.840;2024-01-16T12:32:51;0.50;;;0.50;;
6475;SDS011;3271;51.910;5.840;2024-01-16T12:35:21;0.47;;;0.47;;
6475;SDS011;3271;51.910;5.840;2024-01-16T12:37:57;0.40;;;0.40;;
6475;SDS011;3271;51.910;5.840;2024-01-16T12:40:23;0.40;;;0.40;;
6475;SDS011;3271;51.910;5.840;2024-01-16T12:42:50;0.40;;;0.40;;
6475;SDS011;3271;51.910;5.840;2024-01-16T12:45:16;0.30;;;0.30;;
6475;SDS011;3271;51.910;5.840;2024-01-16T12:47:43;0.45;;;0.45;;
6475;SDS011;3271;51.910;5.840;2024-01-16T12:50:09;1.02;;;1.02;;
6475;SDS011;3271;51.910;5.840;2024-01-16T12:52:35;1.58;;;1.55;;
6475;SDS011;3271;51.910;5.840;2024-01-16T12:55:01;1.35;;;1.35;;
6475;SDS011;3271;51.910;5.840;2024-01-16T12:57:30;1.58;;;1.58;;
6475;SDS011;3271;51.910;5.840;2024-01-16T12:59:56;1.00;;;1.00;;
6475;SDS011;3271;51.910;5.840;2024-01-16T13:02:22;2.30;;;2.20;;
6475;SDS011;3271;51.910;5.840;2024-01-16T13:04:59;2.80;;;1.93;;
6475;SDS011;3271;51.910;5.840;2024-01-16T13:07:28;2.55;;;2.35;;
6475;SDS011;3271;51.910;5.840;2024-01-16T13:10:05;2.42;;;2.33;;
6475;SDS011;3271;51.910;5.840;2024-01-16T13:12:32;1.15;;;1.13;;
6475;SDS011;3271;51.910;5.840;2024-01-16T13:14:58;2.63;;;2.42;;
6475;SDS011;3271;51.910;5.840;2024-01-16T13:17:24;1.35;;;1.35;;
6475;SDS011;3271;51.910;5.840;2024-01-16T13:19:50;1.98;;;1.90;;
6475;SDS011;3271;51.910;5.840;2024-01-16T13:22:16;2.60;;;2.30;;
6475;SDS011;3271;51.910;5.840;2024-01-16T13:24:42;2.25;;;2.15;;
6475;SDS011;3271;51.910;5.840;2024-01-16T13:27:08;1.95;;;1.85;;
6475;SDS011;3271;51.910;5.840;2024-01-16T13:29:38;1.75;;;1.65;;
6475;SDS011;3271;51.910;5.840;2024-01-16T13:32:05;1.02;;;0.98;;
6475;SDS011;3271;51.910;5.840;2024-01-16T13:34:31;0.98;;;0.98;;
6475;SDS011;3271;51.910;5.840;2024-01-16T13:36:58;0.93;;;0.93;;
6475;SDS011;3271;51.910;5.840;2024-01-16T13:39:25;3.97;;;1.23;;
6475;SDS011;3271;51.910;5.840;2024-01-16T13:41:51;1.52;;;1.48;;
6475;SDS011;3271;51.910;5.840;2024-01-16T13:44:17;1.00;;;1.00;;
6475;SDS011;3271;51.910;5.840;2024-01-16T13:46:43;1.38;;;1.35;;
6475;SDS011;3271;51.910;5.840;2024-01-16T13:49:12;1.05;;;0.90;;
6475;SDS011;3271;51.910;5.840;2024-01-16T13:51:38;0.60;;;0.60;;
6475;SDS011;3271;51.910;5.840;2024-01-16T13:54:05;2.42;;;1.55;;
6475;SDS011;3271;51.910;5.840;2024-01-16T13:56:31;0.75;;;0.75;;
6475;SDS011;3271;51.910;5.840;2024-01-16T13:58:57;0.68;;;0.68;;
6475;SDS011;3271;51.910;5.840;2024-01-16T14:01:24;0.90;;;0.90;;
6475;SDS011;3271;51.910;5.840;2024-01-16T14:03:51;0.73;;;0.73;;
6475;SDS011;3271;51.910;5.840;2024-01-16T14:06:17;1.88;;;1.30;;
6475;SDS011;3271;51.910;5.840;2024-01-16T14:08:43;0.98;;;0.98;;
6475;SDS011;3271;51.910;5.840;2024-01-16T14:11:09;0.50;;;0.50;;
6475;SDS011;3271;51.910;5.840;2024-01-16T14:13:35;0.50;;;0.50;;
6475;SDS011;3271;51.910;5.840;2024-01-16T14:16:02;0.45;;;0.45;;
6475;SDS011;3271;51.910;5.840;2024-01-16T14:18:28;0.63;;;0.63;;
6475;SDS011;3271;51.910;5.840;2024-01-16T14:20:54;0.60;;;0.60;;
6475;SDS011;3271;51.910;5.840;2024-01-16T14:23:20;0.50;;;0.50;;
6475;SDS011;3271;51.910;5.840;2024-01-16T14:25:46;0.65;;;0.65;;
6475;SDS011;3271;51.910;5.840;2024-01-16T14:28:12;1.25;;;1.25;;
6475;SDS011;3271;51.910;5.840;2024-01-16T14:30:38;0.60;;;0.60;;
6475;SDS011;3271;51.910;5.840;2024-01-16T14:33:05;0.40;;;0.40;;
6475;SDS011;3271;51.910;5.840;2024-01-16T14:35:33;0.50;;;0.50;;
6475;SDS011;3271;51.910;5.840;2024-01-16T14:37:59;3.20;;;0.73;;
6475;SDS011;3271;51.910;5.840;2024-01-16T14:40:25;0.82;;;0.82;;
6475;SDS011;3271;51.910;5.840;2024-01-16T14:42:53;0.52;;;0.52;;
6475;SDS011;3271;51.910;5.840;2024-01-16T14:45:20;0.47;;;0.47;;
6475;SDS011;3271;51.910;5.840;2024-01-16T14:47:46;0.40;;;0.40;;
6475;SDS011;3271;51.910;5.840;2024-01-16T14:50:12;0.73;;;0.73;;
6475;SDS011;3271;51.910;5.840;2024-01-16T14:52:39;0.57;;;0.57;;
6475;SDS011;3271;51.910;5.840;2024-01-16T14:55:05;0.60;;;0.60;;
6475;SDS011;3271;51.910;5.840;2024-01-16T14:57:32;0.80;;;0.80;;
6475;SDS011;3271;51.910;5.840;2024-01-16T15:00:03;0.40;;;0.40;;
6475;SDS011;3271;51.910;5.840;2024-01-16T15:02:29;0.40;;;0.40;;
6475;SDS011;3271;51.910;5.840;2024-01-16T15:04:55;0.40;;;0.40;;
6475;SDS011;3271;51.910;5.840;2024-01-16T15:07:21;0.30;;;0.30;;
6475;SDS011;3271;51.910;5.840;2024-01-16T15:09:49;0.43;;;0.43;;
6475;SDS011;3271;51.910;5.840;2024-01-16T15:12:15;0.50;;;0.50;;
6475;SDS011;3271;51.910;5.840;2024-01-16T15:14:41;0.43;;;0.43;;
6475;SDS011;3271;51.910;5.840;2024-01-16T15:17:07;0.55;;;0.55;;
6475;SDS011;3271;51.910;5.840;2024-01-16T15:19:33;1.38;;;0.93;;
6475;SDS011;3271;51.910;5.840;2024-01-16T15:21:59;0.47;;;0.47;;
6475;SDS011;3271;51.910;5.840;2024-01-16T15:24:25;0.30;;;0.30;;